Time;durP1;ratioP1;P1;durP2;ratioP2;P2;SDS_P1;SDS_P2;PMS_P1;PMS_P2;Temp;Humidity;BMP_temperature;BMP_pressure;BME280_temperature;BME280_humidity;BME280_pressure;Samples;Min_cycle;Max_cycle;Signal;HPM_P1;HPM_P2
2022/11/16 00:01:40;;;;;;;7.20;3.47;;;10.90;85.70;;;;;;5048673;28;20053;-61
2022/11/16 00:04:10;;;;;;;5.93;3.38;;;10.80;85.60;;;;;;5050993;28;20049;-60
2022/11/16 00:06:44;;;;;;;6.45;3.47;;;10.80;85.70;;;;;;5050423;28;20052;-61
2022/11/16 00:09:25;;;;;;;6.00;3.55;;;10.80;85.80;;;;;;5049732;28;20037;-61
2022/11/16 00:12:01;;;;;;;7.65;3.97;;;10.80;85.90;;;;;;5048165;28;21325;-61
2022/11/16 00:14:36;;;;;;;6.88;3.70;;;10.70;85.90;;;;;;5051125;28;20144;-62
2022/11/16 00:17:03;;;;;;;6.88;3.30;;;10.70;86.10;;;;;;5049838;28;20102;-62
2022/11/16 00:19:33;;;;;;;8.63;3.70;;;10.70;86.20;;;;;;5051168;28;20045;-60
2022/11/16 00:22:00;;;;;;;6.90;3.80;;;10.70;86.10;;;;;;5050228;28;20044;-60
2022/11/16 00:24:28;;;;;;;8.93;4.15;;;10.70;86.10;;;;;;5051595;28;20041;-61
2022/11/16 00:26:55;;;;;;;7.78;4.38;;;10.70;86.10;;;;;;5053281;28;20049;-61
2022/11/16 00:29:24;;;;;;;8.02;4.80;;;10.70;86.10;;;;;;5050533;28;20095;-61
2022/11/16 00:31:52;;;;;;;9.60;4.88;;;10.70;86.00;;;;;;5051512;28;20049;-61
2022/11/16 00:34:21;;;;;;;8.93;4.90;;;10.70;86.00;;;;;;5052253;28;20120;-61
2022/11/16 00:36:50;;;;;;;9.02;5.38;;;10.70;86.10;;;;;;5050692;28;20098;-59
2022/11/16 00:39:19;;;;;;;10.55;4.55;;;10.70;86.20;;;;;;5051845;28;20103;-59
2022/11/16 00:41:47;;;;;;;10.68;4.97;;;10.70;86.30;;;;;;5051955;28;20053;-61
2022/11/16 00:44:15;;;;;;;9.00;4.15;;;10.70;86.40;;;;;;5052194;28;20593;-60
2022/11/16 00:46:42;;;;;;;8.02;4.30;;;10.70;86.40;;;;;;5050933;28;20049;-60
2022/11/16 00:49:10;;;;;;;8.27;4.30;;;10.70;86.60;;;;;;5045860;28;20048;-60
2022/11/16 00:51:38;;;;;;;7.32;4.18;;;10.70;86.70;;;;;;5032380;28;20049;-60
2022/11/16 00:54:08;;;;;;;6.85;3.90;;;10.70;86.70;;;;;;5049524;28;20098;-60
2022/11/16 00:56:37;;;;;;;6.03;3.83;;;10.70;86.70;;;;;;5032668;28;20045;-62
2022/11/16 00:59:05;;;;;;;7.20;3.95;;;10.70;86.80;;;;;;5031326;28;20134;-61
2022/11/16 01:01:32;;;;;;;7.25;3.92;;;10.70;86.90;;;;;;5033201;28;20480;-61
2022/11/16 01:04:01;;;;;;;7.70;3.78;;;10.70;87.00;;;;;;5051992;28;20041;-60
2022/11/16 01:06:29;;;;;;;8.07;4.43;;;10.60;87.00;;;;;;5047596;28;20081;-61
2022/11/16 01:08:56;;;;;;;6.60;3.90;;;10.60;87.00;;;;;;5050740;28;20061;-61
2022/11/16 01:14:09;;;;;;;8.48;4.35;;;10.60;86.90;;;;;;5050958;28;20195;-61
2022/11/16 01:16:36;;;;;;;7.30;4.43;;;10.70;87.00;;;;;;5031813;28;20053;-62
2022/11/16 01:19:04;;;;;;;8.77;4.80;;;10.70;86.90;;;;;;5047778;28;20045;-61
2022/11/16 01:21:33;;;;;;;7.50;4.60;;;10.60;87.10;;;;;;5029286;28;20048;-61
2022/11/16 01:24:00;;;;;;;7.68;4.03;;;10.60;87.10;;;;;;5048447;28;20499;-61
2022/11/16 01:26:29;;;;;;;10.25;4.40;;;10.60;87.40;;;;;;5048821;28;20090;-61
2022/11/16 01:28:57;;;;;;;8.45;4.65;;;10.60;87.50;;;;;;5029476;28;20059;-61
2022/11/16 01:31:24;;;;;;;8.40;4.45;;;10.60;87.80;;;;;;5023729;28;20049;-59
2022/11/16 01:33:54;;;;;;;8.35;4.22;;;10.60;87.80;;;;;;5027566;28;20045;-58
2022/11/16 01:36:24;;;;;;;8.27;4.45;;;10.60;87.70;;;;;;5045081;28;20075;-60
2022/11/16 01:38:53;;;;;;;10.05;4.75;;;10.60;87.70;;;;;;5027267;28;20128;-61
2022/11/16 01:41:24;;;;;;;;;;;10.60;87.60;;;;;;5030146;28;20431;-61
2022/11/16 01:43:58;;;;;;;8.07;4.07;;;10.60;87.60;;;;;;5045025;28;19928;-60
2022/11/16 01:46:32;;;;;;;6.95;3.97;;;10.60;87.70;;;;;;5030455;28;20569;-61
2022/11/16 01:49:02;;;;;;;7.97;4.75;;;10.60;87.90;;;;;;5047298;28;20222;-62
2022/11/16 01:51:30;;;;;;;7.43;4.05;;;10.60;87.90;;;;;;5031033;28;20049;-60
2022/11/16 01:53:59;;;;;;;8.75;4.10;;;10.50;88.20;;;;;;5044390;28;20045;-61
2022/11/16 01:56:26;;;;;;;7.88;4.25;;;10.50;88.10;;;;;;5024829;28;20479;-61
2022/11/16 01:59:17;;;;;;;8.32;4.60;;;10.50;88.10;;;;;;5017773;28;20410;-60
2022/11/16 02:01:48;;;;;;;7.70;4.15;;;10.50;88.40;;;;;;5046759;28;20136;-61
2022/11/16 02:04:15;;;;;;;9.85;4.75;;;10.50;88.40;;;;;;5042216;28;20055;-60
2022/11/16 02:07:01;;;;;;;7.20;4.43;;;10.50;88.40;;;;;;5039658;28;20053;-60
2022/11/16 02:12:44;;;;;;;7.90;4.38;;;10.50;88.60;;;;;;5024380;28;19924;-62
2022/11/16 02:15:24;;;;;;;8.73;4.65;;;10.40;88.60;;;;;;5025740;28;20046;-60
2022/11/16 02:18:15;;;;;;;7.43;4.30;;;10.40;88.70;;;;;;5028349;28;20490;-61
2022/11/16 02:20:59;;;;;;;7.03;4.50;;;10.50;88.80;;;;;;5026127;28;20057;-60
2022/11/16 02:24:02;;;;;;;7.82;4.30;;;10.40;88.70;;;;;;5028729;28;20065;-62
2022/11/16 02:27:07;;;;;;;8.65;4.63;;;10.50;88.90;;;;;;5029564;28;20095;-61
2022/11/16 02:29:39;;;;;;;8.23;4.53;;;10.50;88.90;;;;;;5042752;28;20055;-61
2022/11/16 02:32:13;;;;;;;6.75;4.20;;;10.40;88.90;;;;;;5027556;28;20053;-60
2022/11/16 02:34:44;;;;;;;8.40;4.82;;;10.50;88.80;;;;;;5028426;28;20045;-60
2022/11/16 02:37:14;;;;;;;9.35;4.70;;;10.40;88.90;;;;;;5027995;28;20053;-60
2022/11/16 02:39:44;;;;;;;6.50;4.25;;;10.40;88.90;;;;;;5030005;28;20080;-61
2022/11/16 02:42:15;;;;;;;7.38;4.72;;;10.40;89.00;;;;;;5029458;28;20041;-60
2022/11/16 02:44:46;;;;;;;7.63;4.50;;;10.40;89.10;;;;;;5028914;28;20546;-61
2022/11/16 02:47:19;;;;;;;10.07;4.78;;;10.40;89.00;;;;;;5044504;28;20077;-59
2022/11/16 02:49:55;;;;;;;10.20;4.82;;;10.40;89.00;;;;;;5028917;28;20045;-60
2022/11/16 02:52:25;;;;;;;8.23;5.18;;;10.40;89.10;;;;;;5030001;28;20412;-60
2022/11/16 02:54:52;;;;;;;8.10;4.85;;;10.40;89.20;;;;;;5042824;28;20049;-61
2022/11/16 02:57:44;;;;;;;10.75;5.22;;;10.40;89.20;;;;;;5027755;28;20045;-60
2022/11/16 03:00:21;;;;;;;8.68;4.75;;;10.40;89.30;;;;;;5025075;28;20049;-61
2022/11/16 03:03:05;;;;;;;7.95;5.10;;;10.40;89.30;;;;;;5025516;28;20052;-60
2022/11/16 03:05:38;;;;;;;7.80;4.93;;;10.40;89.40;;;;;;5034971;28;20153;-61
2022/11/16 03:08:16;;;;;;;10.63;5.40;;;10.40;89.40;;;;;;5046075;28;20049;-61
2022/11/16 03:13:36;;;;;;;9.05;5.55;;;10.30;89.50;;;;;;5035261;28;20053;-60
2022/11/16 03:16:09;;;;;;;8.07;5.23;;;10.30;89.40;;;;;;5049622;28;20045;-60
2022/11/16 03:18:40;;;;;;;8.73;5.15;;;10.30;89.50;;;;;;5052664;28;20107;-60
2022/11/16 03:21:14;;;;;;;10.60;5.27;;;10.30;89.60;;;;;;5052263;28;20037;-59
2022/11/16 03:23:47;;;;;;;8.68;5.53;;;10.30;89.70;;;;;;5031873;28;20041;-61
2022/11/16 03:26:18;;;;;;;8.55;5.40;;;10.30;89.60;;;;;;5031710;28;20048;-61
2022/11/16 03:28:52;;;;;;;10.57;5.55;;;10.30;89.60;;;;;;5041002;28;20049;-61
2022/11/16 03:31:26;;;;;;;8.82;5.60;;;10.30;89.70;;;;;;5029062;28;20040;-60
2022/11/16 03:33:55;;;;;;;9.02;5.35;;;10.30;89.70;;;;;;5031092;28;20047;-60
2022/11/16 03:36:30;;;;;;;9.40;5.67;;;10.30;89.70;;;;;;5051690;28;20049;-61
2022/11/16 03:39:01;;;;;;;10.07;5.88;;;10.30;89.80;;;;;;5036110;28;20049;-60
2022/11/16 03:41:33;;;;;;;9.32;5.68;;;10.30;89.80;;;;;;5032511;28;20054;-61
2022/11/16 03:44:00;;;;;;;11.32;6.18;;;10.30;89.90;;;;;;5052523;28;20525;-60
2022/11/16 03:46:29;;;;;;;10.05;5.85;;;10.20;89.80;;;;;;5050687;28;20056;-60
2022/11/16 03:48:57;;;;;;;10.02;6.20;;;10.30;89.80;;;;;;5053080;28;20047;-60
2022/11/16 03:51:27;;;;;;;8.65;5.43;;;10.30;89.80;;;;;;5033715;28;20398;-61
2022/11/16 03:53:55;;;;;;;9.73;5.57;;;10.30;89.80;;;;;;5050639;28;20407;-61
2022/11/16 03:56:22;;;;;;;9.07;5.88;;;10.30;89.90;;;;;;5033257;28;20076;-61
2022/11/16 03:58:49;;;;;;;8.57;5.65;;;10.20;90.00;;;;;;5027370;28;20065;-60
2022/11/16 04:01:17;;;;;;;9.57;6.20;;;10.30;89.80;;;;;;5048496;28;20045;-61
2022/11/16 04:03:47;;;;;;;9.93;6.18;;;10.30;89.80;;;;;;5032596;28;20144;-59
2022/11/16 04:25:51;;;;;;;11.75;6.57;;;10.20;90.10;;;;;;5029995;28;20412;-60
2022/11/16 04:28:23;;;;;;;11.15;6.40;;;10.20;90.10;;;;;;5023944;28;20060;-60
2022/11/16 04:39:19;;;;;;;11.55;6.00;;;10.20;90.20;;;;;;5026218;28;20487;-61
2022/11/16 04:47:16;;;;;;;9.32;6.05;;;10.30;90.40;;;;;;5015959;28;20079;-61
2022/11/16 04:49:43;;;;;;;10.13;6.15;;;10.30;90.40;;;;;;5024943;28;20049;-61
2022/11/16 04:52:11;;;;;;;10.05;6.07;;;10.30;90.40;;;;;;5028638;28;20052;-61
2022/11/16 04:54:41;;;;;;;11.63;6.72;;;10.20;90.50;;;;;;5024082;28;20049;-61
2022/11/16 04:57:09;;;;;;;;;;;10.20;90.60;;;;;;5025457;28;20049;-60
2022/11/16 04:59:36;;;;;;;9.40;5.85;;;10.20;90.70;;;;;;5042685;28;20390;-60
2022/11/16 05:02:12;;;;;;;11.13;6.68;;;10.20;90.60;;;;;;5010164;28;20132;-61
2022/11/16 05:04:47;;;;;;;10.07;6.18;;;10.20;90.30;;;;;;5024518;28;20053;-62
2022/11/16 05:07:15;;;;;;;9.73;6.07;;;10.30;90.60;;;;;;5029057;28;20491;-62
2022/11/16 05:09:47;;;;;;;10.35;6.60;;;10.30;90.20;;;;;;5043947;28;20098;-61
2022/11/16 05:12:16;;;;;;;8.68;5.53;;;10.30;90.50;;;;;;5041138;28;20041;-61
2022/11/16 05:14:44;;;;;;;9.82;5.95;;;10.30;90.60;;;;;;5045832;28;20053;-61
2022/11/16 05:17:14;;;;;;;10.13;6.43;;;10.20;90.40;;;;;;5048419;28;20454;-62
2022/11/16 05:22:28;;;;;;;9.35;6.43;;;10.20;90.80;;;;;;5029486;28;20510;-62
2022/11/16 05:24:56;;;;;;;11.20;6.13;;;10.20;90.80;;;;;;5029070;28;20041;-60
2022/11/16 05:27:25;;;;;;;11.45;6.68;;;10.20;90.70;;;;;;5032150;28;20464;-61
2022/11/16 05:29:53;;;;;;;11.25;5.70;;;10.20;90.80;;;;;;5031577;28;20438;-60
2022/11/16 05:32:24;;;;;;;9.75;6.15;;;10.20;90.80;;;;;;5046201;28;20150;-60
2022/11/16 05:34:57;;;;;;;9.40;6.30;;;10.20;90.80;;;;;;5044776;28;20542;-60
2022/11/16 05:37:25;;;;;;;9.30;5.60;;;10.20;90.70;;;;;;5029567;28;20057;-61
2022/11/16 05:39:55;;;;;;;9.60;5.95;;;10.20;90.80;;;;;;5030453;28;20272;-61
2022/11/16 05:42:26;;;;;;;10.95;6.10;;;10.20;90.80;;;;;;5046718;28;20056;-61
2022/11/16 05:44:54;;;;;;;8.90;6.03;;;10.20;90.80;;;;;;5032683;28;20052;-61
2022/11/16 05:47:21;;;;;;;11.20;6.55;;;10.20;90.90;;;;;;5046639;28;20049;-60
2022/11/16 05:49:50;;;;;;;9.52;6.22;;;10.20;90.80;;;;;;5047390;28;20045;-60
2022/11/16 05:52:17;;;;;;;10.93;6.30;;;10.20;90.80;;;;;;5028429;28;20052;-60
2022/11/16 05:54:45;;;;;;;10.45;6.43;;;10.20;90.90;;;;;;5029968;28;20053;-60
2022/11/16 05:57:14;;;;;;;10.10;6.75;;;10.20;91.00;;;;;;5032345;28;20152;-60
2022/11/16 05:59:41;;;;;;;11.10;7.22;;;10.20;90.90;;;;;;5027652;28;20041;-60
2022/11/16 06:02:08;;;;;;;11.25;7.60;;;10.20;90.80;;;;;;5028916;28;20040;-61
2022/11/16 06:04:35;;;;;;;10.70;7.75;;;10.20;90.80;;;;;;5044953;28;20056;-61
2022/11/16 06:07:09;;;;;;;12.05;7.53;;;10.30;90.70;;;;;;5029660;28;20491;-61
2022/11/16 06:09:39;;;;;;;12.52;7.63;;;10.20;90.80;;;;;;5028142;28;20136;-60
2022/11/16 06:12:17;;;;;;;11.23;7.88;;;10.30;90.90;;;;;;5027554;28;20511;-61
2022/11/16 06:14:44;;;;;;;11.43;7.75;;;10.30;90.90;;;;;;5029939;28;20045;-60
2022/11/16 06:17:13;;;;;;;13.02;7.93;;;10.30;90.60;;;;;;5021916;28;20042;-61
2022/11/16 06:19:41;;;;;;;11.18;7.13;;;10.30;90.70;;;;;;5042368;28;20416;-62
2022/11/16 06:22:08;;;;;;;10.85;7.20;;;10.20;91.00;;;;;;5042521;28;20408;-60
2022/11/16 06:24:35;;;;;;;9.38;6.70;;;10.20;91.10;;;;;;5025681;28;20049;-60
2022/11/16 06:27:02;;;;;;;11.32;6.90;;;10.20;91.10;;;;;;5025234;28;20091;-61
2022/11/16 06:29:35;;;;;;;10.85;6.70;;;10.20;91.20;;;;;;5020412;28;20049;-61
2022/11/16 06:32:02;;;;;;;11.10;6.43;;;10.20;91.20;;;;;;5024476;28;20100;-59
2022/11/16 06:34:29;;;;;;;9.88;6.30;;;10.20;91.10;;;;;;5026434;28;20069;-61
2022/11/16 06:36:57;;;;;;;12.02;7.45;;;10.20;91.20;;;;;;5024357;28;20045;-61
2022/11/16 06:39:24;;;;;;;11.10;6.60;;;10.20;91.20;;;;;;5025636;28;20054;-60
2022/11/16 06:41:52;;;;;;;12.27;7.03;;;10.20;91.30;;;;;;5023846;28;20052;-61
2022/11/16 06:44:19;;;;;;;14.05;7.13;;;10.20;91.30;;;;;;5027192;28;20547;-61
2022/11/16 06:46:59;;;;;;;12.60;7.28;;;10.20;91.30;;;;;;5028693;28;20137;-60
2022/11/16 06:49:26;;;;;;;12.70;7.05;;;10.20;91.20;;;;;;5029712;28;20053;-60
2022/11/16 06:51:57;;;;;;;11.88;6.85;;;10.20;91.20;;;;;;5041951;28;20071;-61
2022/11/16 06:54:24;;;;;;;12.30;6.97;;;10.20;91.40;;;;;;5027728;28;20053;-62
2022/11/16 06:56:52;;;;;;;13.38;7.50;;;10.20;91.30;;;;;;5028474;28;20064;-60
2022/11/16 06:59:19;;;;;;;11.50;6.53;;;10.20;91.30;;;;;;5033377;28;20495;-61
2022/11/16 07:01:46;;;;;;;13.40;7.68;;;10.20;91.20;;;;;;5027274;28;20045;-61
2022/11/16 07:04:16;;;;;;;13.52;7.70;;;10.20;91.30;;;;;;5030625;28;20060;-61
2022/11/16 07:06:49;;;;;;;12.63;7.85;;;10.20;91.40;;;;;;5048620;28;20061;-60
2022/11/16 07:09:17;;;;;;;12.13;7.82;;;10.20;91.10;;;;;;5028097;28;21006;-61
2022/11/16 07:11:44;;;;;;;13.90;7.68;;;10.20;91.20;;;;;;5045175;28;20052;-61
2022/11/16 07:14:11;;;;;;;10.98;6.88;;;10.30;91.20;;;;;;5031016;28;20103;-61
2022/11/16 07:16:38;;;;;;;11.05;7.00;;;10.30;91.20;;;;;;5032443;28;20053;-61
2022/11/16 07:19:05;;;;;;;9.82;5.93;;;10.30;91.30;;;;;;5031351;28;20053;-60
2022/11/16 07:21:37;;;;;;;13.50;7.38;;;10.30;91.40;;;;;;5047536;28;20060;-61
2022/11/16 07:24:07;;;;;;;9.95;5.97;;;10.30;91.30;;;;;;5029219;28;20073;-61
2022/11/16 07:26:35;;;;;;;9.20;6.07;;;10.30;91.30;;;;;;5024903;28;20049;-60
2022/11/16 07:29:11;;;;;;;9.90;5.68;;;10.30;91.30;;;;;;5030420;28;20053;-60
2022/11/16 07:31:42;;;;;;;10.23;6.00;;;10.30;91.30;;;;;;5028797;28;20107;-60
2022/11/16 07:34:48;;;;;;;10.27;5.93;;;10.30;91.30;;;;;;5010347;28;20154;-60
2022/11/16 07:37:18;;;;;;;8.75;5.60;;;10.30;91.30;;;;;;5009491;28;20423;-61
2022/11/16 07:39:45;;;;;;;8.95;5.78;;;10.30;91.30;;;;;;5025339;28;20058;-61
2022/11/16 07:42:13;;;;;;;10.05;6.18;;;10.30;91.20;;;;;;5032125;28;20141;-61
2022/11/16 07:45:02;;;;;;;9.45;5.97;;;10.30;91.30;;;;;;5027319;28;20199;-60
2022/11/16 07:47:37;;;;;;;10.02;6.28;;;10.40;91.20;;;;;;5046951;28;20119;-61
2022/11/16 07:50:09;;;;;;;8.75;5.18;;;10.40;91.20;;;;;;5028438;28;20175;-61
2022/11/16 07:52:38;;;;;;;9.90;5.65;;;10.40;91.20;;;;;;5029719;28;20170;-61
2022/11/16 07:55:08;;;;;;;10.05;5.32;;;10.40;91.20;;;;;;5046030;28;20050;-60
2022/11/16 07:57:35;;;;;;;9.65;6.10;;;10.40;91.00;;;;;;5028050;28;20061;-61
2022/11/16 08:00:07;;;;;;;9.32;5.68;;;10.40;91.10;;;;;;5043227;28;20045;-60
2022/11/16 08:02:56;;;;;;;10.07;5.50;;;10.50;90.70;;;;;;5023781;28;20561;-61
2022/11/16 08:05:23;;;;;;;11.40;6.47;;;10.50;90.90;;;;;;5023350;28;20049;-60
2022/11/16 08:07:52;;;;;;;10.07;5.70;;;10.50;91.10;;;;;;5028960;28;20049;-61
2022/11/16 08:10:23;;;;;;;11.57;7.47;;;10.40;91.10;;;;;;5027363;28;20499;-60
2022/11/16 08:12:51;;;;;;;19.20;11.70;;;10.50;91.20;;;;;;5024984;28;20073;-61
2022/11/16 08:15:20;;;;;;;31.63;18.73;;;10.50;91.30;;;;;;5025920;28;20041;-60
2022/11/16 08:17:47;;;;;;;33.47;20.80;;;10.50;91.30;;;;;;5023665;28;20046;-60
2022/11/16 08:20:15;;;;;;;32.17;18.58;;;10.50;91.10;;;;;;5026907;28;20053;-61
2022/11/16 08:22:43;;;;;;;23.80;14.68;;;10.50;90.90;;;;;;5044159;28;20547;-62
2022/11/16 08:25:12;;;;;;;21.67;13.57;;;10.50;90.90;;;;;;5039433;28;20480;-61
2022/11/16 08:27:42;;;;;;;19.90;11.52;;;10.50;91.10;;;;;;5026361;28;20045;-61
2022/11/16 08:30:10;;;;;;;18.63;9.85;;;10.50;91.20;;;;;;5025230;28;20480;-61
2022/11/16 08:32:40;;;;;;;15.63;9.63;;;10.50;91.00;;;;;;5019740;28;20068;-62
2022/11/16 08:35:11;;;;;;;14.75;8.80;;;10.50;90.80;;;;;;5038949;28;20045;-61
2022/11/16 08:37:40;;;;;;;12.70;8.05;;;10.60;90.90;;;;;;5031884;28;20472;-59
2022/11/16 08:40:09;;;;;;;13.23;7.80;;;10.60;90.50;;;;;;5026173;28;20051;-60
2022/11/16 08:42:40;;;;;;;12.80;8.10;;;10.60;90.80;;;;;;5028819;28;20049;-61
2022/11/16 08:45:07;;;;;;;12.27;7.25;;;10.60;91.20;;;;;;5029382;28;20133;-60
2022/11/16 08:47:34;;;;;;;11.23;7.30;;;10.60;91.20;;;;;;5028116;28;20045;-61
2022/11/16 08:50:02;;;;;;;13.88;7.18;;;10.60;91.20;;;;;;5028463;28;20602;-61
2022/11/16 08:52:31;;;;;;;10.52;6.82;;;10.70;91.30;;;;;;5027034;28;20054;-60
2022/11/16 08:54:59;;;;;;;10.80;6.75;;;10.70;91.20;;;;;;5042971;28;20054;-60
2022/11/16 08:57:26;;;;;;;10.80;6.90;;;10.70;91.30;;;;;;5030653;28;20046;-60
2022/11/16 08:59:59;;;;;;;10.77;6.63;;;10.90;91.20;;;;;;5041676;28;20131;-61
2022/11/16 09:02:26;;;;;;;12.00;6.70;;;10.90;91.20;;;;;;5028158;28;20117;-60
2022/11/16 09:04:53;;;;;;;10.38;6.32;;;11.00;91.10;;;;;;5029739;28;20099;-59
2022/11/16 09:07:20;;;;;;;11.23;7.07;;;11.10;91.00;;;;;;5046741;28;20132;-60
2022/11/16 09:09:47;;;;;;;10.75;6.85;;;11.20;90.90;;;;;;5047064;28;20037;-60
2022/11/16 09:12:14;;;;;;;12.63;6.82;;;11.20;90.90;;;;;;5048026;28;20048;-60
2022/11/16 09:14:41;;;;;;;11.32;6.65;;;11.30;91.00;;;;;;5049482;28;20037;-59
2022/11/16 09:17:09;;;;;;;12.43;6.95;;;11.40;91.00;;;;;;5047549;28;20146;-61
2022/11/16 09:19:36;;;;;;;10.98;6.70;;;11.50;90.90;;;;;;5043878;28;20068;-61
2022/11/16 09:22:04;;;;;;;10.40;5.75;;;11.50;90.90;;;;;;5047675;28;20110;-61
2022/11/16 09:24:31;;;;;;;10.38;6.40;;;11.50;90.80;;;;;;5044271;28;20053;-66
2022/11/16 09:27:00;;;;;;;9.80;6.32;;;11.60;90.80;;;;;;5047413;28;20041;-66
2022/11/16 09:29:28;;;;;;;9.85;5.50;;;11.70;90.70;;;;;;5050036;28;20045;-65
2022/11/16 09:31:57;;;;;;;7.22;4.70;;;11.80;90.80;;;;;;5047287;28;20384;-66
2022/11/16 09:34:27;;;;;;;9.25;4.88;;;11.80;90.70;;;;;;5045869;28;20084;-64
2022/11/16 09:36:56;;;;;;;8.82;4.70;;;11.90;90.80;;;;;;5045587;28;20055;-66
2022/11/16 09:39:23;;;;;;;6.85;3.80;;;11.90;90.90;;;;;;5045446;28;20049;-66
2022/11/16 09:42:05;;;;;;;7.35;4.03;;;11.90;90.90;;;;;;5046952;28;20044;-66
2022/11/16 09:45:03;;;;;;;7.78;4.10;;;11.90;90.90;;;;;;5048069;28;20478;-66
2022/11/16 09:47:47;;;;;;;6.57;3.78;;;11.90;90.80;;;;;;5046445;28;20049;-66
2022/11/16 09:50:36;;;;;;;6.38;3.20;;;12.00;90.80;;;;;;5043052;28;20063;-66
2022/11/16 09:53:22;;;;;;;5.53;2.85;;;12.10;90.60;;;;;;5047774;28;20048;-65
2022/11/16 09:55:51;;;;;;;5.60;2.40;;;12.10;90.60;;;;;;5049874;28;20045;-65
2022/11/16 09:58:24;;;;;;;3.53;1.80;;;12.10;90.40;;;;;;5046877;28;20486;-65
2022/11/16 10:00:58;;;;;;;5.60;1.60;;;12.00;90.40;;;;;;5047529;28;20487;-59
2022/11/16 10:03:28;;;;;;;2.45;1.27;;;12.00;90.40;;;;;;5045634;28;20049;-60
2022/11/16 10:06:02;;;;;;;4.28;1.50;;;11.90;90.40;;;;;;5044213;28;20073;-59
2022/11/16 10:08:41;;;;;;;4.72;1.52;;;11.90;90.30;;;;;;5045837;28;20045;-59
2022/11/16 10:11:27;;;;;;;3.58;1.45;;;11.90;90.40;;;;;;5047214;28;20048;-60
2022/11/16 10:14:05;;;;;;;4.35;1.40;;;11.90;90.40;;;;;;5044682;28;20135;-60
2022/11/16 10:16:38;;;;;;;4.78;1.20;;;11.90;90.40;;;;;;5046847;28;20045;-60
2022/11/16 10:19:18;;;;;;;4.65;1.50;;;11.90;90.40;;;;;;5044607;28;20054;-59
2022/11/16 10:21:55;;;;;;;3.00;1.37;;;11.90;90.30;;;;;;5044588;28;20040;-60
2022/11/16 10:24:35;;;;;;;4.25;1.30;;;11.90;90.20;;;;;;5047484;28;20045;-60
2022/11/16 10:27:15;;;;;;;3.47;1.60;;;11.90;90.00;;;;;;5049943;28;20513;-59
2022/11/16 10:29:54;;;;;;;4.70;1.30;;;12.00;89.70;;;;;;5046892;28;20072;-60
2022/11/16 10:32:27;;;;;;;3.70;1.58;;;12.00;89.70;;;;;;5046617;28;20431;-60
2022/11/16 10:34:56;;;;;;;5.30;1.67;;;12.00;89.30;;;;;;5046287;28;20484;-60
2022/11/16 10:37:30;;;;;;;4.30;1.52;;;12.00;89.40;;;;;;5048907;28;20055;-60
2022/11/16 10:39:59;;;;;;;3.83;1.65;;;12.00;89.30;;;;;;5044636;28;20048;-59
2022/11/16 10:42:33;;;;;;;5.82;1.50;;;12.00;89.00;;;;;;5050588;28;20049;-59
2022/11/16 10:45:08;;;;;;;5.03;1.20;;;12.00;89.00;;;;;;5047640;28;20055;-59
2022/11/16 10:47:41;;;;;;;5.00;1.48;;;12.10;88.40;;;;;;5047636;28;20765;-59
2022/11/16 10:50:32;;;;;;;3.90;1.15;;;12.10;88.50;;;;;;5047453;28;20415;-60
2022/11/16 10:53:01;;;;;;;5.82;1.30;;;12.20;88.30;;;;;;5047982;28;20479;-60
2022/11/16 10:55:29;;;;;;;2.97;1.20;;;12.20;88.20;;;;;;5045892;28;20045;-61
2022/11/16 10:57:58;;;;;;;4.30;1.27;;;12.20;87.90;;;;;;5048531;28;20049;-60
2022/11/16 11:00:41;;;;;;;2.70;1.00;;;12.20;87.80;;;;;;5046784;28;20080;-59
2022/11/16 11:03:09;;;;;;;4.53;1.25;;;12.30;87.60;;;;;;5043791;28;20573;-60
2022/11/16 11:05:51;;;;;;;4.43;1.10;;;12.20;87.30;;;;;;5024001;28;20064;-60
2022/11/16 11:08:29;;;;;;;4.97;1.00;;;12.20;87.00;;;;;;5024872;28;20054;-59
2022/11/16 11:12:36;;;;;;;3.40;1.10;;;12.20;87.00;;;;;;5027180;28;20484;-60
2022/11/16 11:14:08;;;;;;;3.35;0.98;;;12.20;87.10;;;;;;5028158;28;20045;-60
2022/11/16 11:16:35;;;;;;;6.75;1.23;;;12.20;87.00;;;;;;5026269;28;20055;-60
2022/11/16 11:19:24;;;;;;;5.13;1.60;;;12.20;87.00;;;;;;5026669;28;20030;-59
2022/11/16 11:21:56;;;;;;;4.68;1.17;;;12.30;87.00;;;;;;5023646;28;20045;-60
2022/11/16 11:24:25;;;;;;;4.13;1.20;;;12.20;86.90;;;;;;5027047;28;20072;-62
2022/11/16 11:26:56;;;;;;;6.57;1.57;;;12.30;86.70;;;;;;5023432;28;20103;-62
2022/11/16 11:29:26;;;;;;;7.45;1.27;;;12.20;86.60;;;;;;5016548;28;20124;-61
2022/11/16 11:31:55;;;;;;;7.35;1.10;;;12.20;86.10;;;;;;5027550;28;20467;-62
2022/11/16 11:34:26;;;;;;;2.45;0.80;;;12.20;86.40;;;;;;5030225;28;20056;-61
2022/11/16 11:36:58;;;;;;;5.18;0.77;;;12.20;85.50;;;;;;5024718;28;20044;-62
2022/11/16 11:39:35;;;;;;;3.90;1.05;;;12.20;85.40;;;;;;5030089;28;20053;-62
2022/11/16 11:42:19;;;;;;;4.18;1.25;;;12.20;85.60;;;;;;5029638;28;20060;-61
2022/11/16 11:44:53;;;;;;;5.47;1.02;;;12.20;85.00;;;;;;5029424;28;20045;-61
2022/11/16 11:47:42;;;;;;;4.00;1.00;;;12.20;85.10;;;;;;5026408;28;20242;-61
2022/11/16 11:50:18;;;;;;;3.40;0.90;;;12.10;84.60;;;;;;5029073;28;20814;-61
2022/11/16 11:52:57;;;;;;;4.43;1.02;;;12.10;83.50;;;;;;5029980;28;20049;-62
2022/11/16 11:55:26;;;;;;;4.30;1.00;;;12.10;83.50;;;;;;5029920;28;20053;-61
2022/11/16 11:57:53;;;;;;;5.25;1.48;;;12.20;83.20;;;;;;5029638;28;20046;-61
2022/11/16 12:00:21;;;;;;;4.85;0.93;;;12.20;83.40;;;;;;5031531;28;20059;-62
2022/11/16 12:03:15;;;;;;;5.60;1.13;;;12.20;83.80;;;;;;5025354;28;20443;-62
2022/11/16 12:05:53;;;;;;;5.38;1.10;;;12.20;83.50;;;;;;5039378;28;20064;-61
2022/11/16 12:08:41;;;;;;;3.35;1.10;;;12.20;82.50;;;;;;5052094;28;20073;-61
2022/11/16 12:11:18;;;;;;;5.70;1.20;;;12.20;82.90;;;;;;5050620;28;20072;-62
2022/11/16 12:14:01;;;;;;;3.78;1.10;;;12.30;83.00;;;;;;5049011;28;20099;-61
2022/11/16 12:16:34;;;;;;;4.38;0.70;;;12.40;82.50;;;;;;5045052;28;20085;-61
2022/11/16 12:19:29;;;;;;;5.45;1.00;;;12.50;82.30;;;;;;5048180;28;20126;-62
2022/11/16 12:22:13;;;;;;;4.57;1.13;;;12.50;82.40;;;;;;5014000;28;20122;-62
2022/11/16 12:24:59;;;;;;;6.55;1.23;;;12.60;82.10;;;;;;5049206;28;20040;-61
2022/11/16 12:27:36;;;;;;;5.47;1.50;;;12.60;82.10;;;;;;5049857;28;20513;-62
2022/11/16 12:30:09;;;;;;;6.80;1.27;;;12.60;82.20;;;;;;5048496;28;20072;-62
2022/11/16 12:32:52;;;;;;;6.97;1.60;;;12.50;81.70;;;;;;5051099;28;20060;-61
2022/11/16 12:35:29;;;;;;;5.38;1.20;;;12.50;81.90;;;;;;5048909;28;20049;-62
2022/11/16 12:38:07;;;;;;;6.18;1.73;;;12.50;82.10;;;;;;5051873;28;20076;-62
2022/11/16 12:40:42;;;;;;;3.33;1.00;;;12.50;81.90;;;;;;5048521;28;20060;-62
2022/11/16 12:43:19;;;;;;;7.15;1.40;;;12.40;82.10;;;;;;5047467;28;20045;-62
2022/11/16 12:46:00;;;;;;;5.28;1.05;;;12.40;82.00;;;;;;5047509;28;20045;-62
2022/11/16 12:48:44;;;;;;;3.78;1.23;;;12.40;81.80;;;;;;5047893;28;20045;-61
2022/11/16 12:51:22;;;;;;;6.50;1.23;;;12.40;82.10;;;;;;5048981;28;20069;-61
2022/11/16 12:54:12;;;;;;;6.35;1.17;;;12.40;81.30;;;;;;5049416;28;20079;-61
2022/11/16 12:56:48;;;;;;;5.70;1.48;;;12.40;80.80;;;;;;5044203;28;20041;-61
2022/11/16 12:59:38;;;;;;;4.80;1.42;;;12.40;81.20;;;;;;5049711;28;20047;-62
2022/11/16 13:02:17;;;;;;;8.30;1.75;;;12.40;81.10;;;;;;5046613;28;20041;-60
2022/11/16 13:04:49;;;;;;;7.22;2.17;;;12.50;81.10;;;;;;5048386;28;20498;-61
2022/11/16 13:07:21;;;;;;;5.47;1.75;;;12.40;81.40;;;;;;5047643;28;20045;-61
2022/11/16 13:09:51;;;;;;;8.23;2.22;;;12.50;81.20;;;;;;5044597;28;20079;-62
2022/11/16 13:12:22;;;;;;;6.10;1.75;;;12.50;81.30;;;;;;5042245;28;20081;-61
2022/11/16 13:14:53;;;;;;;6.22;1.98;;;12.50;81.30;;;;;;5043756;28;20049;-62
2022/11/16 13:17:22;;;;;;;6.18;1.85;;;12.60;81.90;;;;;;5043798;28;20660;-62
2022/11/16 13:20:02;;;;;;;6.90;1.88;;;12.50;81.40;;;;;;5039399;28;20055;-62
2022/11/16 13:22:36;;;;;;;5.22;1.52;;;12.50;81.30;;;;;;5044444;28;20036;-61
2022/11/16 13:25:06;;;;;;;;;;;12.50;81.40;;;;;;5045763;28;20044;-62
2022/11/16 13:27:38;;;;;;;5.38;1.20;;;12.50;81.80;;;;;;5040779;28;19931;-62
2022/11/16 13:30:17;;;;;;;6.32;1.60;;;12.40;81.30;;;;;;5048377;28;20140;-61
2022/11/16 13:33:07;;;;;;;5.20;1.40;;;12.30;81.00;;;;;;5044921;28;20402;-63
2022/11/16 13:35:37;;;;;;;2.85;1.20;;;12.30;81.40;;;;;;5045728;28;20574;-61
2022/11/16 13:38:08;;;;;;;5.70;1.77;;;12.20;81.10;;;;;;5047824;28;20491;-62
2022/11/16 13:40:36;;;;;;;4.78;1.20;;;12.20;81.30;;;;;;5045288;28;20499;-62
2022/11/16 13:43:19;;;;;;;5.97;1.42;;;12.20;81.70;;;;;;5051432;28;20048;-62
2022/11/16 13:45:58;;;;;;;5.00;1.52;;;12.20;81.20;;;;;;5048060;28;20494;-61
2022/11/16 13:48:30;;;;;;;5.60;1.85;;;12.20;82.50;;;;;;5047510;28;20049;-61
2022/11/16 13:51:00;;;;;;;5.57;1.45;;;12.20;81.50;;;;;;5045837;28;20102;-63
2022/11/16 13:53:34;;;;;;;5.68;1.55;;;12.20;82.20;;;;;;5044357;28;20041;-61
2022/11/16 13:56:04;;;;;;;4.75;1.63;;;12.20;82.00;;;;;;5045394;28;20056;-61